Decoded Metar for LEAL (ALICANTE in SPAIN) (IATA:ALC) | Meteo·Mobile Aviation Weather
aviador You're here:

LEAL Decoded Metar

ALICANTE in SPAIN
Report Time2018-08-22 06:30:00
UTC Time2018-08-22 06:59:59
Flight Rules vfr VFR
WindCalm
Visibility9999 m
Phenomena:N/A
Clouds:N/A
Expected CloudBase > 4,000 ft AGL from Temp-Dew spread
CeilingNone
Temp25°C (ISA +10)
Dew Point15°C (54% RH)
QNH1015 hPa
Density Alt1,444 ft
Elevation102 ft
Report Wrong Elevation
Raw Report
LEAL 220630Z 00000KT CAVOK 25/15 Q1015 NOSIG=

Extra information for LEAL:More info

Metar Taf Metar & Taf Last 4 Metars F.Rules Stats Wind Profile Meteogram Temp Stats Airport Information Weather charts Add Link Nearby VenuesMetar ALERT Operation Metar Decoded Social comments